Time;durP1;ratioP1;P1;durP2;ratioP2;P2;SDS_P1;SDS_P2;PMS_P1;PMS_P2;Temp;Humidity;BMP_temperature;BMP_pressure;BME280_temperature;BME280_humidity;BME280_pressure;Samples;Min_cycle;Max_cycle;Signal;HPM_P1;HPM_P2
2023/09/02 00:02:09;;;;;;;17.42;3.47;;;;;;;;;;5017066;28;20239;-80
2023/09/02 00:04:36;;;;;;;21.30;4.13;;;;;;;;;;5015172;28;20645;-81
2023/09/02 00:07:03;;;;;;;15.57;3.47;;;;;;;;;;5018610;28;20239;-80
2023/09/02 00:09:29;;;;;;;23.17;4.50;;;;;;;;;;5015697;28;20242;-81
2023/09/02 00:11:56;;;;;;;19.77;3.80;;;;;;;;;;5007862;28;20682;-80
2023/09/02 00:14:22;;;;;;;23.42;4.47;;;;;;;;;;5021623;28;20239;-80
2023/09/02 00:16:49;;;;;;;45.97;10.48;;;;;;;;;;5020260;28;20281;-80
2023/09/02 00:19:15;;;;;;;18.35;3.42;;;;;;;;;;5023982;28;20251;-80
2023/09/02 00:21:42;;;;;;;47.67;10.85;;;;;;;;;;5016960;28;20290;-80
2023/09/02 00:24:08;;;;;;;18.02;3.53;;;;;;;;;;5023201;28;20231;-80
2023/09/02 00:26:35;;;;;;;22.17;4.35;;;;;;;;;;5018191;28;20234;-82
2023/09/02 00:29:02;;;;;;;18.85;3.63;;;;;;;;;;5006173;28;20666;-80
2023/09/02 00:31:29;;;;;;;22.58;4.30;;;;;;;;;;5013729;28;20231;-82
2023/09/02 00:33:55;;;;;;;17.50;3.38;;;;;;;;;;5015022;28;20424;-80
2023/09/02 00:36:22;;;;;;;26.25;4.90;;;;;;;;;;5021782;28;20237;-80
2023/09/02 00:38:48;;;;;;;36.88;8.60;;;;;;;;;;5012568;28;20258;-80
2023/09/02 00:41:42;;;;;;;23.95;4.65;;;;;;;;;;5024474;28;20723;-80
2023/09/02 00:44:08;;;;;;;22.45;4.25;;;;;;;;;;4983493;28;20239;-80
2023/09/02 00:46:35;;;;;;;28.20;5.28;;;;;;;;;;5020465;28;20231;-82
2023/09/02 00:49:02;;;;;;;21.52;4.00;;;;;;;;;;5014976;28;20237;-80
2023/09/02 00:51:29;;;;;;;26.38;4.95;;;;;;;;;;5014575;28;20290;-80
2023/09/02 00:53:55;;;;;;;15.73;3.10;;;;;;;;;;5010216;28;21940;-79
2023/09/02 00:56:22;;;;;;;22.75;4.28;;;;;;;;;;5021080;28;20234;-80
2023/09/02 00:58:49;;;;;;;36.20;8.35;;;;;;;;;;5012532;28;20223;-79
2023/09/02 01:01:16;;;;;;;18.02;3.50;;;;;;;;;;5014007;28;20243;-80
2023/09/02 01:03:42;;;;;;;34.95;7.75;;;;;;;;;;5005743;28;20286;-81
2023/09/02 01:06:09;;;;;;;18.33;3.47;;;;;;;;;;5023011;28;20231;-80
2023/09/02 01:08:36;;;;;;;30.80;5.72;;;;;;;;;;5023171;28;20235;-82
2023/09/02 01:11:03;;;;;;;16.33;3.50;;;;;;;;;;5019811;28;20239;-80
2023/09/02 01:13:30;;;;;;;23.67;4.55;;;;;;;;;;5017917;28;20232;-79
2023/09/02 01:15:56;;;;;;;26.88;5.43;;;;;;;;;;5018887;28;20692;-80
2023/09/02 01:18:23;;;;;;;20.17;3.92;;;;;;;;;;5017872;28;20306;-80
2023/09/02 01:20:50;;;;;;;60.95;13.65;;;;;;;;;;5006450;28;20242;-80
2023/09/02 01:23:37;;;;;;;13.70;2.58;;;;;;;;;;5016976;28;20649;-80
2023/09/02 01:26:13;;;;;;;20.88;4.05;;;;;;;;;;4990804;28;20227;-80
2023/09/02 01:28:41;;;;;;;35.03;7.95;;;;;;;;;;5012700;28;20218;-80
2023/09/02 01:31:10;;;;;;;18.33;3.63;;;;;;;;;;5015590;28;20256;-80
2023/09/02 01:33:37;;;;;;;26.20;4.88;;;;;;;;;;5015909;28;20251;-80
2023/09/02 01:36:04;;;;;;;22.98;4.45;;;;;;;;;;5024920;28;20591;-79
2023/09/02 01:38:31;;;;;;;30.35;5.95;;;;;;;;;;5017660;28;20239;-80
2023/09/02 01:40:59;;;;;;;30.80;6.07;;;;;;;;;;5011466;28;20304;-80
2023/09/02 01:43:27;;;;;;;15.93;3.17;;;;;;;;;;5017582;28;20227;-80
2023/09/02 01:45:53;;;;;;;38.55;8.55;;;;;;;;;;5011695;28;20322;-81
2023/09/02 01:48:20;;;;;;;22.35;4.40;;;;;;;;;;5014062;28;20243;-81
2023/09/02 01:50:47;;;;;;;42.78;9.60;;;;;;;;;;5010785;28;20226;-79
2023/09/02 01:53:14;;;;;;;27.17;5.53;;;;;;;;;;5015290;28;20226;-80
2023/09/02 01:55:42;;;;;;;34.85;7.32;;;;;;;;;;5016098;28;20235;-80
2023/09/02 01:58:09;;;;;;;19.10;3.58;;;;;;;;;;5017804;28;20236;-80
2023/09/02 02:00:35;;;;;;;31.33;5.88;;;;;;;;;;5014425;28;20692;-81
2023/09/02 02:03:03;;;;;;;19.55;3.97;;;;;;;;;;5009703;28;20223;-80
2023/09/02 02:05:39;;;;;;;29.55;5.60;;;;;;;;;;5007157;28;20261;-80
2023/09/02 02:08:10;;;;;;;14.95;2.95;;;;;;;;;;5015391;28;20234;-80
2023/09/02 02:10:38;;;;;;;48.25;9.38;;;;;;;;;;5009596;28;20349;-80
2023/09/02 02:13:06;;;;;;;22.73;4.60;;;;;;;;;;5016147;28;20235;-79
2023/09/02 02:15:33;;;;;;;21.77;4.22;;;;;;;;;;5016847;28;20231;-79
2023/09/02 02:17:59;;;;;;;14.48;2.88;;;;;;;;;;5013893;28;20243;-79
2023/09/02 02:20:27;;;;;;;23.25;4.63;;;;;;;;;;5014718;28;20711;-79
2023/09/02 02:22:55;;;;;;;36.08;8.70;;;;;;;;;;5012866;28;20239;-80
2023/09/02 02:25:21;;;;;;;20.17;4.03;;;;;;;;;;5019164;28;20228;-79
2023/09/02 02:27:48;;;;;;;34.85;8.55;;;;;;;;;;5010119;28;20223;-79
2023/09/02 02:30:14;;;;;;;20.05;4.18;;;;;;;;;;5017054;28;20728;-79
2023/09/02 02:32:41;;;;;;;33.30;8.05;;;;;;;;;;5012911;28;20771;-79
2023/09/02 02:35:07;;;;;;;15.98;3.20;;;;;;;;;;5014784;28;20311;-79
2023/09/02 02:37:34;;;;;;;21.50;4.22;;;;;;;;;;5021377;28;20292;-80
2023/09/02 02:40:00;;;;;;;22.50;4.13;;;;;;;;;;5015855;28;20243;-80
2023/09/02 02:42:27;;;;;;;28.50;5.45;;;;;;;;;;5019007;28;20231;-79
2023/09/02 02:44:53;;;;;;;43.60;9.48;;;;;;;;;;5016496;28;20238;-79
2023/09/02 02:47:20;;;;;;;23.77;4.57;;;;;;;;;;5021323;28;20701;-80
2023/09/02 02:49:47;;;;;;;49.20;11.27;;;;;;;;;;5013134;28;20250;-80
2023/09/02 02:52:13;;;;;;;19.90;3.72;;;;;;;;;;5015451;28;20230;-80
2023/09/02 02:54:40;;;;;;;34.13;8.15;;;;;;;;;;5017593;28;20239;-80
2023/09/02 02:57:06;;;;;;;20.98;4.07;;;;;;;;;;5019715;28;20637;-80
2023/09/02 02:59:33;;;;;;;47.20;8.88;;;;;;;;;;5016847;28;20728;-81
2023/09/02 03:01:59;;;;;;;16.08;3.35;;;;;;;;;;5019771;28;20295;-79
2023/09/02 03:04:26;;;;;;;27.23;5.22;;;;;;;;;;5022115;28;20224;-79
2023/09/02 03:06:52;;;;;;;42.65;9.75;;;;;;;;;;5016714;28;20305;-82
2023/09/02 03:09:19;;;;;;;20.63;3.92;;;;;;;;;;5020370;28;20650;-80
2023/09/02 03:11:46;;;;;;;41.38;9.73;;;;;;;;;;5009412;28;20227;-80
2023/09/02 03:14:12;;;;;;;21.65;4.05;;;;;;;;;;5020572;28;20227;-79
2023/09/02 03:16:39;;;;;;;32.35;6.80;;;;;;;;;;5007094;28;20270;-80
2023/09/02 03:19:05;;;;;;;29.05;5.63;;;;;;;;;;5021478;28;20231;-79
2023/09/02 03:21:32;;;;;;;17.92;3.72;;;;;;;;;;5021334;28;20242;-79
2023/09/02 03:23:58;;;;;;;19.17;3.92;;;;;;;;;;5018816;28;20235;-80
2023/09/02 03:26:26;;;;;;;20.42;4.05;;;;;;;;;;5021063;28;20223;-79
2023/09/02 03:28:53;;;;;;;44.78;10.15;;;;;;;;;;5018069;28;20291;-80
2023/09/02 03:31:20;;;;;;;17.35;3.30;;;;;;;;;;5020231;28;20240;-81
2023/09/02 03:33:47;;;;;;;37.33;9.00;;;;;;;;;;5012369;28;20239;-79
2023/09/02 03:36:17;;;;;;;23.33;4.38;;;;;;;;;;5019542;28;20242;-80
2023/09/02 03:38:44;;;;;;;53.50;12.15;;;;;;;;;;5007848;28;20241;-80
2023/09/02 03:41:17;;;;;;;22.08;4.50;;;;;;;;;;5018733;28;20239;-79
2023/09/02 03:43:45;;;;;;;35.15;7.97;;;;;;;;;;5011017;28;20238;-80
2023/09/02 03:46:12;;;;;;;22.23;4.18;;;;;;;;;;5017355;28;20241;-79
2023/09/02 03:48:39;;;;;;;44.35;7.80;;;;;;;;;;5016613;28;20231;-79
2023/09/02 03:51:11;;;;;;;18.65;3.50;;;;;;;;;;5018721;28;20234;-79
2023/09/02 03:53:38;;;;;;;34.55;6.78;;;;;;;;;;5015221;28;20234;-79
2023/09/02 03:56:05;;;;;;;20.60;4.13;;;;;;;;;;5017278;28;20581;-79
2023/09/02 03:58:31;;;;;;;26.35;5.35;;;;;;;;;;5019484;28;20226;-79
2023/09/02 04:00:58;;;;;;;20.55;4.05;;;;;;;;;;5013265;28;20237;-80
2023/09/02 04:03:25;;;;;;;17.55;3.28;;;;;;;;;;5016940;28;20238;-79
2023/09/02 04:05:52;;;;;;;47.42;10.98;;;;;;;;;;5015358;28;20323;-80
2023/09/02 04:08:20;;;;;;;21.27;4.03;;;;;;;;;;5017051;28;20250;-80
2023/09/02 04:10:51;;;;;;;41.30;9.43;;;;;;;;;;5013296;28;20258;-79
2023/09/02 04:13:21;;;;;;;22.15;4.22;;;;;;;;;;5027657;28;20305;-79
2023/09/02 04:15:47;;;;;;;45.78;10.30;;;;;;;;;;5017135;28;20236;-79
2023/09/02 04:18:14;;;;;;;18.13;3.45;;;;;;;;;;5019480;28;20225;-79
2023/09/02 04:20:41;;;;;;;40.42;9.02;;;;;;;;;;5006196;28;20239;-82
2023/09/02 04:23:07;;;;;;;24.90;4.72;;;;;;;;;;5021420;28;20230;-79
2023/09/02 04:25:41;;;;;;;22.83;4.38;;;;;;;;;;5021090;28;20222;-81
2023/09/02 04:28:08;;;;;;;18.80;3.60;;;;;;;;;;5018837;28;20226;-79
2023/09/02 04:30:35;;;;;;;27.05;5.10;;;;;;;;;;5025231;28;20226;-80
2023/09/02 04:33:02;;;;;;;16.20;3.15;;;;;;;;;;5014166;28;20243;-79
2023/09/02 04:35:33;;;;;;;22.65;4.28;;;;;;;;;;5021318;28;20326;-80
2023/09/02 04:38:00;;;;;;;18.75;3.63;;;;;;;;;;5019471;28;20286;-79
2023/09/02 04:40:27;;;;;;;27.92;5.50;;;;;;;;;;5014879;28;20290;-81
2023/09/02 04:42:55;;;;;;;37.45;9.20;;;;;;;;;;5016247;28;20231;-78
2023/09/02 04:45:21;;;;;;;22.65;4.22;;;;;;;;;;5015197;28;20238;-79
2023/09/02 04:47:49;;;;;;;39.40;9.00;;;;;;;;;;5027600;28;20234;-81
2023/09/02 04:50:15;;;;;;;15.90;3.17;;;;;;;;;;5022819;28;20322;-81
2023/09/02 04:52:44;;;;;;;34.05;8.25;;;;;;;;;;5017171;28;20666;-80
2023/09/02 04:55:11;;;;;;;15.18;3.03;;;;;;;;;;5018134;28;20234;-79
2023/09/02 04:57:37;;;;;;;25.08;4.90;;;;;;;;;;5014117;28;20806;-80
2023/09/02 05:00:04;;;;;;;17.05;3.30;;;;;;;;;;5018325;28;20246;-79
2023/09/02 05:02:31;;;;;;;17.65;3.45;;;;;;;;;;5016828;28;20239;-79
2023/09/02 05:04:57;;;;;;;23.40;4.43;;;;;;;;;;5018061;28;20595;-80
2023/09/02 05:07:24;;;;;;;19.60;3.90;;;;;;;;;;5019047;28;20239;-79
2023/09/02 05:09:51;;;;;;;26.60;6.50;;;;;;;;;;5016516;28;20227;-80
2023/09/02 05:12:17;;;;;;;14.63;2.95;;;;;;;;;;5022817;28;20233;-80
2023/09/02 05:14:44;;;;;;;42.33;9.15;;;;;;;;;;5018821;28;20246;-80
2023/09/02 05:17:10;;;;;;;15.07;2.97;;;;;;;;;;5021718;28;20230;-79
2023/09/02 05:19:37;;;;;;;25.40;4.85;;;;;;;;;;5014380;28;20671;-79
2023/09/02 05:22:03;;;;;;;13.15;2.72;;;;;;;;;;5021987;28;20234;-80
2023/09/02 05:24:30;;;;;;;22.48;4.40;;;;;;;;;;5015160;28;20227;-80
2023/09/02 05:26:57;;;;;;;16.02;3.28;;;;;;;;;;5013341;28;20322;-80
2023/09/02 05:29:24;;;;;;;25.63;4.93;;;;;;;;;;5015527;28;20230;-78
2023/09/02 05:31:50;;;;;;;60.55;10.50;;;;;;;;;;5014693;28;20316;-79
2023/09/02 05:34:17;;;;;;;14.50;3.10;;;;;;;;;;5014626;28;20227;-79
2023/09/02 05:36:43;;;;;;;63.10;11.02;;;;;;;;;;5026399;28;20239;-79
2023/09/02 05:39:10;;;;;;;13.48;2.80;;;;;;;;;;5014073;28;20263;-78
2023/09/02 05:41:38;;;;;;;18.52;3.80;;;;;;;;;;5012355;28;20253;-82
2023/09/02 05:44:05;;;;;;;13.35;2.83;;;;;;;;;;5005966;28;20231;-78
2023/09/02 05:46:31;;;;;;;14.50;3.20;;;;;;;;;;5002521;28;20232;-78
2023/09/02 05:48:58;;;;;;;12.75;2.83;;;;;;;;;;5024394;28;20222;-79
2023/09/02 05:51:25;;;;;;;14.32;3.10;;;;;;;;;;5015200;28;20313;-79
2023/09/02 05:53:51;;;;;;;57.75;10.23;;;;;;;;;;5013585;28;20223;-79
2023/09/02 05:56:18;;;;;;;16.65;3.40;;;;;;;;;;5021444;28;20234;-79
2023/09/02 05:58:45;;;;;;;44.85;7.50;;;;;;;;;;5015828;28;20553;-79
2023/09/02 06:01:11;;;;;;;14.88;3.00;;;;;;;;;;5009293;28;20235;-79
2023/09/02 06:03:38;;;;;;;26.80;5.72;;;;;;;;;;5004973;28;20273;-81
2023/09/02 06:06:08;;;;;;;13.90;2.83;;;;;;;;;;5021700;28;20234;-80
2023/09/02 06:08:35;;;;;;;21.23;4.35;;;;;;;;;;5013177;28;20229;-81
2023/09/02 06:11:03;;;;;;;26.27;5.00;;;;;;;;;;5009558;28;20736;-80
2023/09/02 06:13:30;;;;;;;33.42;6.50;;;;;;;;;;5014990;28;20227;-79
2023/09/02 06:15:58;;;;;;;22.45;4.55;;;;;;;;;;5014061;28;20694;-78
2023/09/02 06:18:24;;;;;;;21.65;4.32;;;;;;;;;;5018329;28;20265;-79
2023/09/02 06:20:51;;;;;;;54.13;12.18;;;;;;;;;;5007770;28;20231;-81
2023/09/02 06:23:18;;;;;;;21.48;4.35;;;;;;;;;;5012067;28;20235;-79
2023/09/02 06:25:54;;;;;;;49.03;11.27;;;;;;;;;;5019035;28;20235;-80
2023/09/02 06:28:20;;;;;;;17.58;3.38;;;;;;;;;;5017517;28;20241;-79
2023/09/02 06:30:47;;;;;;;39.75;8.75;;;;;;;;;;5019892;28;20230;-80
2023/09/02 06:33:13;;;;;;;22.42;4.38;;;;;;;;;;5023331;28;20651;-79
2023/09/02 06:35:40;;;;;;;41.85;9.00;;;;;;;;;;5010791;28;20231;-79
2023/09/02 06:38:06;;;;;;;17.17;3.40;;;;;;;;;;5016908;28;20235;-80
2023/09/02 06:40:33;;;;;;;21.50;4.13;;;;;;;;;;5021427;28;20239;-78
2023/09/02 06:42:59;;;;;;;19.67;3.83;;;;;;;;;;5006035;28;20235;-79
2023/09/02 06:45:26;;;;;;;26.92;5.00;;;;;;;;;;5016773;28;20293;-79
2023/09/02 06:47:53;;;;;;;37.63;8.98;;;;;;;;;;5017903;28;20246;-79
2023/09/02 06:50:20;;;;;;;21.55;4.15;;;;;;;;;;5020893;28;20242;-81
2023/09/02 06:52:46;;;;;;;37.45;9.18;;;;;;;;;;5004059;28;20238;-81
2023/09/02 06:55:14;;;;;;;20.88;4.03;;;;;;;;;;5029793;28;20235;-81
2023/09/02 06:57:43;;;;;;;38.05;8.68;;;;;;;;;;5011243;28;20226;-79
2023/09/02 07:00:11;;;;;;;18.17;4.40;;;;;;;;;;4989989;28;20233;-80
2023/09/02 07:02:38;;;;;;;25.27;5.10;;;;;;;;;;5018906;28;20255;-80
2023/09/02 07:05:05;;;;;;;18.55;3.63;;;;;;;;;;5022720;28;20238;-80
2023/09/02 07:07:32;;;;;;;24.38;4.78;;;;;;;;;;5020951;28;20293;-80
2023/09/02 07:09:58;;;;;;;18.73;3.78;;;;;;;;;;5019677;28;20320;-81
2023/09/02 07:12:25;;;;;;;17.15;3.50;;;;;;;;;;5028637;28;20273;-81
2023/09/02 07:14:51;;;;;;;40.72;9.75;;;;;;;;;;5028001;28;20222;-80
2023/09/02 07:17:18;;;;;;;19.33;3.67;;;;;;;;;;5037145;28;20241;-80
2023/09/02 07:19:45;;;;;;;40.25;9.20;;;;;;;;;;5029938;28;20740;-80
2023/09/02 07:22:11;;;;;;;19.63;3.85;;;;;;;;;;5028220;28;20246;-80
2023/09/02 07:24:38;;;;;;;32.03;7.30;;;;;;;;;;5011681;28;20230;-80
2023/09/02 07:27:04;;;;;;;20.33;3.90;;;;;;;;;;5026572;28;20235;-81
2023/09/02 07:29:31;;;;;;;37.33;7.13;;;;;;;;;;5026419;28;20265;-81
2023/09/02 07:31:57;;;;;;;16.95;3.45;;;;;;;;;;5018892;28;20235;-78
2023/09/02 07:34:24;;;;;;;25.25;5.00;;;;;;;;;;5026988;28;20234;-82
2023/09/02 07:36:51;;;;;;;42.88;10.15;;;;;;;;;;5025286;28;20230;-80
2023/09/02 07:39:17;;;;;;;21.08;4.43;;;;;;;;;;5023283;28;20281;-81
2023/09/02 07:41:44;;;;;;;40.88;9.18;;;;;;;;;;5013948;28;20231;-80
2023/09/02 07:44:10;;;;;;;23.38;4.50;;;;;;;;;;5025519;28;20234;-81
2023/09/02 07:46:37;;;;;;;29.05;5.85;;;;;;;;;;5017934;28;20238;-80
2023/09/02 07:49:03;;;;;;;24.83;4.97;;;;;;;;;;5004776;28;20297;-81
2023/09/02 07:51:30;;;;;;;38.95;7.65;;;;;;;;;;5023799;28;20775;-80
2023/09/02 07:53:57;;;;;;;23.50;4.60;;;;;;;;;;5026385;28;20241;-81
2023/09/02 07:56:23;;;;;;;17.30;3.63;;;;;;;;;;5025964;28;20728;-80
2023/09/02 07:58:51;;;;;;;39.78;10.02;;;;;;;;;;5024721;28;20227;-81
2023/09/02 08:01:18;;;;;;;18.13;3.50;;;;;;;;;;5023176;28;20242;-81
2023/09/02 08:03:45;;;;;;;43.90;11.52;;;;;;;;;;5029512;28;20227;-81
2023/09/02 08:06:12;;;;;;;18.02;3.53;;;;;;;;;;5037121;28;20723;-80
2023/09/02 08:08:38;;;;;;;26.73;5.45;;;;;;;;;;5023122;28;20231;-81
2023/09/02 08:11:05;;;;;;;16.00;3.45;;;;;;;;;;5020236;28;20258;-80
2023/09/02 08:13:33;;;;;;;24.20;4.88;;;;;;;;;;5025029;28;20235;-81
2023/09/02 08:16:02;;;;;;;18.35;3.95;;;;;;;;;;5029195;28;20312;-81
2023/09/02 08:18:29;;;;;;;36.97;7.53;;;;;;;;;;5022935;28;20226;-81
2023/09/02 08:20:56;;;;;;;23.75;5.38;;;;;;;;;;5007145;28;20564;-80
2023/09/02 08:23:22;;;;;;;24.08;5.05;;;;;;;;;;5020712;28;20247;-82
2023/09/02 08:25:49;;;;;;;42.72;9.85;;;;;;;;;;5014020;28;20235;-83
2023/09/02 08:28:15;;;;;;;21.88;4.22;;;;;;;;;;5017465;28;20231;-80
2023/09/02 08:30:43;;;;;;;41.55;9.75;;;;;;;;;;5020081;28;20230;-81
2023/09/02 08:33:09;;;;;;;24.10;4.95;;;;;;;;;;5025413;28;20242;-81
2023/09/02 08:35:36;;;;;;;26.40;5.05;;;;;;;;;;5021072;28;20223;-83
2023/09/02 08:38:06;;;;;;;15.95;5.07;;;;;;;;;;5018015;28;20721;-81
2023/09/02 08:40:32;;;;;;;22.10;5.40;;;;;;;;;;5024572;28;20230;-81
2023/09/02 08:43:00;;;;;;;18.88;3.90;;;;;;;;;;5014498;28;20234;-79
2023/09/02 08:45:28;;;;;;;19.45;5.47;;;;;;;;;;5019856;28;20226;-78
2023/09/02 08:47:59;;;;;;;39.90;9.95;;;;;;;;;;5012993;28;20676;-79
2023/09/02 08:50:26;;;;;;;22.50;4.40;;;;;;;;;;5009666;28;20235;-79
2023/09/02 08:52:54;;;;;;;36.85;8.77;;;;;;;;;;5015555;28;20230;-79
2023/09/02 08:55:21;;;;;;;17.67;4.15;;;;;;;;;;5017844;28;20242;-79
2023/09/02 08:57:48;;;;;;;34.85;7.97;;;;;;;;;;5011908;28;20235;-80
2023/09/02 09:00:15;;;;;;;18.58;3.67;;;;;;;;;;5012954;28;20239;-79
2023/09/02 09:02:42;;;;;;;42.20;10.50;;;;;;;;;;5005870;28;20234;-79
2023/09/02 09:05:10;;;;;;;19.58;3.75;;;;;;;;;;5014551;28;20280;-79
2023/09/02 09:07:38;;;;;;;21.40;4.78;;;;;;;;;;5015525;28;20230;-81
2023/09/02 09:10:08;;;;;;;13.30;2.65;;;;;;;;;;5020060;28;20257;-79
2023/09/02 09:12:35;;;;;;;19.45;3.75;;;;;;;;;;5020279;28;20241;-79
2023/09/02 09:15:02;;;;;;;25.55;6.63;;;;;;;;;;5018981;28;20688;-79
2023/09/02 09:17:31;;;;;;;22.00;4.07;;;;;;;;;;5017632;28;20234;-80
2023/09/02 09:20:00;;;;;;;20.70;6.38;;;;;;;;;;5015387;28;20285;-80
2023/09/02 09:22:27;;;;;;;16.33;3.47;;;;;;;;;;5016527;28;20232;-80
2023/09/02 09:24:54;;;;;;;54.13;9.68;;;;;;;;;;5009570;28;20230;-80
2023/09/02 09:27:21;;;;;;;12.95;2.80;;;;;;;;;;5023381;28;20245;-80
2023/09/02 09:29:47;;;;;;;60.38;11.30;;;;;;;;;;5018033;28;20241;-80
2023/09/02 09:32:14;;;;;;;24.33;5.07;;;;;;;;;;5012422;28;20261;-80
2023/09/02 09:34:42;;;;;;;55.63;10.38;;;;;;;;;;5012016;28;20222;-80
2023/09/02 09:37:09;;;;;;;15.05;3.05;;;;;;;;;;5010663;28;20233;-80
2023/09/02 09:39:42;;;;;;;34.17;11.70;;;;;;;;;;5026707;28;20736;-82
2023/09/02 09:42:15;;;;;;;12.95;2.75;;;;;;;;;;5022655;28;20240;-80
2023/09/02 09:44:55;;;;;;;28.23;7.47;;;;;;;;;;5016453;28;20249;-80
2023/09/02 09:47:23;;;;;;;17.60;4.00;;;;;;;;;;5019815;28;20229;-81
2023/09/02 09:49:50;;;;;;;40.90;9.75;;;;;;;;;;5011354;28;20266;-79
2023/09/02 09:52:18;;;;;;;21.52;5.55;;;;;;;;;;5015191;28;20701;-80
2023/09/02 09:54:47;;;;;;;42.92;9.00;;;;;;;;;;5019397;28;20234;-80
2023/09/02 09:57:32;;;;;;;20.42;4.32;;;;;;;;;;5019389;28;20237;-80
2023/09/02 09:59:58;;;;;;;19.42;5.70;;;;;;;;;;5007958;28;20728;-80
2023/09/02 10:02:25;;;;;;;21.98;4.30;;;;;;;;;;5021591;28;20313;-80
2023/09/02 10:04:52;;;;;;;32.78;7.97;;;;;;;;;;5017933;28;20230;-80
2023/09/02 10:07:24;;;;;;;23.10;4.53;;;;;;;;;;5022112;28;20231;-80
2023/09/02 10:09:55;;;;;;;39.47;9.52;;;;;;;;;;4998924;28;20226;-81
2023/09/02 10:12:22;;;;;;;16.25;3.22;;;;;;;;;;5038936;28;20238;-80
2023/09/02 10:14:49;;;;;;;43.88;9.75;;;;;;;;;;4990085;28;20224;-80
2023/09/02 10:17:16;;;;;;;21.65;4.63;;;;;;;;;;5015966;28;20242;-80
2023/09/02 10:19:44;;;;;;;81.65;16.20;;;;;;;;;;5016470;28;20254;-80
2023/09/02 10:22:18;;;;;;;14.38;3.13;;;;;;;;;;5023588;28;20241;-81
2023/09/02 10:25:04;;;;;;;49.75;8.48;;;;;;;;;;5014203;28;20241;-80
2023/09/02 10:27:34;;;;;;;14.60;3.30;;;;;;;;;;5019737;28;20222;-81
2023/09/02 10:30:01;;;;;;;27.60;6.22;;;;;;;;;;4925901;28;20304;-80
2023/09/02 10:32:33;;;;;;;15.75;3.50;;;;;;;;;;4998812;28;20238;-80
2023/09/02 10:35:13;;;;;;;11.60;2.50;;;;;;;;;;4976951;28;20234;-80
2023/09/02 10:37:45;;;;;;;22.38;5.25;;;;;;;;;;5002683;28;20384;-80
2023/09/02 10:40:15;;;;;;;14.95;3.05;;;;;;;;;;4954045;28;20234;-81
2023/09/02 10:42:44;;;;;;;22.70;4.60;;;;;;;;;;4908103;28;20325;-81
2023/09/02 10:45:11;;;;;;;20.25;4.00;;;;;;;;;;4923138;29;20206;-80
2023/09/02 10:47:39;;;;;;;20.27;4.07;;;;;;;;;;4921371;29;20214;-82
2023/09/02 10:50:08;;;;;;;18.63;4.03;;;;;;;;;;4901236;28;20240;-79
2023/09/02 10:52:35;;;;;;;19.58;3.78;;;;;;;;;;4999371;28;20720;-80
2023/09/02 10:55:05;;;;;;;22.25;4.20;;;;;;;;;;4997805;28;20239;-81
2023/09/02 10:57:43;;;;;;;23.45;5.10;;;;;;;;;;5014094;28;20234;-80
2023/09/02 11:00:20;;;;;;;19.15;3.80;;;;;;;;;;5018608;28;20238;-79
2023/09/02 11:02:53;;;;;;;48.95;12.35;;;;;;;;;;5015560;28;20225;-80
2023/09/02 11:05:20;;;;;;;16.00;3.22;;;;;;;;;;5019762;28;20738;-80
2023/09/02 11:07:48;;;;;;;53.45;42.53;;;;;;;;;;5007171;28;20312;-81
2023/09/02 11:10:16;;;;;;;42.15;25.42;;;;;;;;;;5021353;28;20322;-81
2023/09/02 11:13:01;;;;;;;54.33;22.55;;;;;;;;;;5017177;28;20256;-80
2023/09/02 11:15:28;;;;;;;21.35;5.43;;;;;;;;;;5018862;28;20230;-81
2023/09/02 11:17:56;;;;;;;41.10;10.98;;;;;;;;;;5015443;28;20235;-81
2023/09/02 11:20:25;;;;;;;27.30;23.98;;;;;;;;;;5016158;28;20308;-82
2023/09/02 11:22:56;;;;;;;41.40;24.52;;;;;;;;;;5017265;28;20281;-81
2023/09/02 11:25:39;;;;;;;22.33;17.95;;;;;;;;;;5017293;28;20263;-81
2023/09/02 11:28:24;;;;;;;42.47;38.38;;;;;;;;;;5012732;28;20582;-81
2023/09/02 11:31:03;;;;;;;71.88;17.58;;;;;;;;;;5005188;28;20233;-81
2023/09/02 11:33:30;;;;;;;50.47;45.58;;;;;;;;;;5017394;28;20230;-81
2023/09/02 11:36:12;;;;;;;34.35;31.27;;;;;;;;;;4996618;28;20727;-81
2023/09/02 11:38:39;;;;;;;58.20;46.55;;;;;;;;;;5019052;28;20230;-81
2023/09/02 11:41:07;;;;;;;21.60;4.72;;;;;;;;;;5022459;28;20405;-82
2023/09/02 11:43:34;;;;;;;41.15;36.20;;;;;;;;;;5024578;28;20222;-81
2023/09/02 11:46:02;;;;;;;74.28;67.35;;;;;;;;;;5012771;28;20234;-81
2023/09/02 11:48:29;;;;;;;51.60;44.58;;;;;;;;;;5022476;28;20226;-80
2023/09/02 11:50:59;;;;;;;23.35;5.22;;;;;;;;;;5016666;28;20276;-79
2023/09/02 11:53:27;;;;;;;12.88;3.03;;;;;;;;;;5020365;28;20280;-80
2023/09/02 11:55:54;;;;;;;61.72;14.60;;;;;;;;;;5017519;28;20222;-81
2023/09/02 11:58:20;;;;;;;43.90;36.72;;;;;;;;;;5017415;28;20245;-81
2023/09/02 12:00:47;;;;;;;47.50;8.88;;;;;;;;;;5017582;28;20230;-80
2023/09/02 12:03:19;;;;;;;15.13;3.47;;;;;;;;;;5021544;28;20235;-81
2023/09/02 12:05:47;;;;;;;42.72;8.35;;;;;;;;;;5013300;28;20227;-80
2023/09/02 12:08:15;;;;;;;15.98;3.58;;;;;;;;;;5019815;28;20223;-81
2023/09/02 12:10:41;;;;;;;103.00;19.80;;;;;;;;;;5022479;28;20238;-82
2023/09/02 12:13:08;;;;;;;50.10;45.42;;;;;;;;;;5015599;28;20231;-81
2023/09/02 12:15:35;;;;;;;36.65;20.25;;;;;;;;;;5019779;28;20223;-82
2023/09/02 12:18:02;;;;;;;51.63;46.10;;;;;;;;;;5000909;28;20239;-81
2023/09/02 12:20:29;;;;;;;49.15;43.90;;;;;;;;;;5015075;28;20241;-81
2023/09/02 12:22:55;;;;;;;103.78;17.52;;;;;;;;;;5005050;28;20230;-81
2023/09/02 12:25:23;;;;;;;15.43;3.58;;;;;;;;;;5017591;28;20218;-80
2023/09/02 12:27:50;;;;;;;71.55;27.25;;;;;;;;;;5013681;28;20230;-83
2023/09/02 12:30:27;;;;;;;61.63;55.53;;;;;;;;;;5012614;28;20261;-81
2023/09/02 12:32:56;;;;;;;114.50;44.17;;;;;;;;;;5007285;28;20234;-80
2023/09/02 12:35:24;;;;;;;30.70;24.13;;;;;;;;;;5017690;28;20701;-82
2023/09/02 12:38:00;;;;;;;93.03;52.92;;;;;;;;;;5009513;28;20229;-81
2023/09/02 12:40:27;;;;;;;22.80;4.93;;;;;;;;;;5015813;28;20235;-81
2023/09/02 12:42:54;;;;;;;64.03;12.43;;;;;;;;;;5010806;28;20218;-82
2023/09/02 12:45:27;;;;;;;102.95;93.75;;;;;;;;;;5017121;28;20261;-81
2023/09/02 12:47:56;;;;;;;76.55;24.52;;;;;;;;;;5009237;28;20234;-82
2023/09/02 12:50:23;;;;;;;12.68;2.85;;;;;;;;;;5011786;28;20241;-81
2023/09/02 12:52:54;;;;;;;52.47;8.68;;;;;;;;;;5016152;28;20317;-81
2023/09/02 12:55:22;;;;;;;75.90;69.03;;;;;;;;;;5022583;28;20277;-82
2023/09/02 12:57:49;;;;;;;56.60;11.57;;;;;;;;;;4994068;28;20279;-82
2023/09/02 13:00:15;;;;;;;39.35;20.25;;;;;;;;;;5003121;28;20230;-81
2023/09/02 13:02:45;;;;;;;62.47;46.30;;;;;;;;;;4997449;28;20222;-81
2023/09/02 13:05:12;;;;;;;17.70;3.60;;;;;;;;;;4941542;28;20238;-82
2023/09/02 13:07:38;;;;;;;97.07;87.68;;;;;;;;;;4895166;28;20292;-84
2023/09/02 13:10:07;;;;;;;57.53;51.60;;;;;;;;;;5009202;28;20229;-83
2023/09/02 13:12:34;;;;;;;53.13;48.08;;;;;;;;;;5019889;28;20249;-82
2023/09/02 13:15:01;;;;;;;119.82;110.80;;;;;;;;;;5012204;28;20274;-82
2023/09/02 13:17:27;;;;;;;55.75;50.47;;;;;;;;;;5005938;28;20237;-82
2023/09/02 13:19:54;;;;;;;110.10;100.03;;;;;;;;;;5015051;28;20234;-82
2023/09/02 13:22:21;;;;;;;122.68;113.10;;;;;;;;;;5021002;28;20227;-82
2023/09/02 13:24:48;;;;;;;132.95;120.30;;;;;;;;;;5014891;28;20225;-82
2023/09/02 13:27:16;;;;;;;117.15;107.25;;;;;;;;;;5022556;28;20246;-82
2023/09/02 13:29:43;;;;;;;67.53;45.85;;;;;;;;;;5013879;28;20265;-82
2023/09/02 13:32:15;;;;;;;76.72;62.20;;;;;;;;;;5013402;28;20240;-82
2023/09/02 13:34:42;;;;;;;67.47;41.20;;;;;;;;;;5017870;28;20320;-82
2023/09/02 13:37:11;;;;;;;88.97;81.30;;;;;;;;;;5020169;28;20269;-82
2023/09/02 13:39:38;;;;;;;146.75;134.60;;;;;;;;;;5005882;28;20301;-82
2023/09/02 13:42:09;;;;;;;47.78;41.88;;;;;;;;;;5018987;28;20233;-82
2023/09/02 13:44:36;;;;;;;82.03;74.35;;;;;;;;;;5021818;28;20286;-82
2023/09/02 13:47:07;;;;;;;168.27;155.77;;;;;;;;;;5013324;28;20226;-82
2023/09/02 13:49:34;;;;;;;62.13;37.85;;;;;;;;;;5021510;28;20226;-82
2023/09/02 13:52:02;;;;;;;98.63;91.00;;;;;;;;;;5026274;28;20700;-82
2023/09/02 13:54:28;;;;;;;110.88;101.38;;;;;;;;;;5021896;28;20233;-82
2023/09/02 13:56:55;;;;;;;79.32;15.98;;;;;;;;;;5015328;28;20226;-83
2023/09/02 13:59:23;;;;;;;28.45;5.95;;;;;;;;;;5020991;28;20230;-82
2023/09/02 14:01:51;;;;;;;102.90;31.90;;;;;;;;;;5012317;28;20226;-83
2023/09/02 14:04:18;;;;;;;24.17;12.95;;;;;;;;;;5027040;28;20253;-82
2023/09/02 14:06:44;;;;;;;66.72;49.75;;;;;;;;;;5009162;28;20234;-82
2023/09/02 14:09:18;;;;;;;30.35;20.70;;;;;;;;;;5011463;28;20229;-82
2023/09/02 14:11:45;;;;;;;95.78;86.40;;;;;;;;;;5019749;28;20240;-83
2023/09/02 14:14:12;;;;;;;102.97;94.78;;;;;;;;;;5011557;28;20230;-82
2023/09/02 14:16:39;;;;;;;106.70;98.05;;;;;;;;;;5014368;28;20607;-82
2023/09/02 14:19:05;;;;;;;66.15;59.42;;;;;;;;;;5018368;28;20261;-82
2023/09/02 14:21:32;;;;;;;48.92;43.90;;;;;;;;;;5016654;28;20297;-84
2023/09/02 14:23:59;;;;;;;45.30;40.58;;;;;;;;;;5011630;28;20238;-82
2023/09/02 14:26:30;;;;;;;107.38;99.20;;;;;;;;;;5019533;28;20324;-82
2023/09/02 14:28:56;;;;;;;48.78;25.27;;;;;;;;;;5012966;28;20268;-82
2023/09/02 14:31:23;;;;;;;194.10;178.55;;;;;;;;;;5013828;28;20302;-82